Estación Meteorológica Peña el Pijo (Robertgarden) [ 01/30/23 13:59:14 CET ]

Fecha Hora Presion(HPa) Temp (°C) Humedad % Rocio (°C) Viento ( m/s) Direccion Lluvia 1Hora(mm) Lluvia 24H(mm) LLuvia Total(mm)
2010-Apr-24 01:01:16 1009.600 8.7 83 6.0         112.92
2010-Apr-24 02:01:14 1009.700 8.1 85 5.7         112.92
2010-Apr-24 03:03:21 1009.600 7.2 86 5.0         112.92
2010-Apr-24 04:01:16 1009.500 7.0 87 5.0         112.92
2010-Apr-24 05:01:14 1009.700 6.8 89 5.1         112.92
2010-Apr-24 06:01:21 1009.700 6.4 89 4.7         112.92
2010-Apr-24 07:01:14 1009.700 6.3 90 4.8         112.92
2010-Apr-24 08:01:19 1010.100 6.3 91 5.0         112.92
2010-Apr-24 09:01:14 1010.500 11.1 87 9.0         112.92
2010-Apr-24 10:01:13 1010.700 15.5 71 10.3         112.92
2010-Apr-24 11:01:14 1010.700 18.6 55 9.3         112.92
2010-Apr-24 12:01:14 1011.000 17.3 56 8.4         112.92
2010-Apr-24 13:01:11 1011.100 18.8 51 8.5         112.92
2010-Apr-24 14:01:11 1010.800 24.2 36 8.1 2.9 SW     112.92
2010-Apr-24 15:01:15 1010.800 19.8 49 8.8         112.92
2010-Apr-24 16:01:13 1010.600 20.1 46 8.1         112.92
2010-Apr-24 17:01:17 1010.400 19.6 51 9.2         112.92
2010-Apr-24 18:01:17 1010.600 18.8 54 9.3         112.92
2010-Apr-24 19:01:12 1011.400 16.1 71 10.9         112.92
2010-Apr-24 20:01:11 1011.400 15.7 73 10.9         112.92
2010-Apr-24 21:01:13 1012.100 14.6 79 11.0         112.92
2010-Apr-24 22:01:16 1013.000 13.2 83 10.3         112.92
2010-Apr-24 23:01:16 1013.600 12.5 86 10.2         112.92

Temperatura Máxima:24°    Temperatura Mínima:
Presión Máxima:1013.600 Hpa    Presión Mínima:1009.500 Hpa


Volver